createdAt,value
2022-09-21T00:01:39.436Z,2.22
2022-09-21T00:04:08.009Z,2.33
2022-09-21T00:06:37.612Z,2.17
2022-09-21T00:09:09.514Z,2.22
2022-09-21T00:11:38.241Z,2.00
2022-09-21T00:14:08.834Z,2.42
2022-09-21T00:16:37.167Z,2.20
2022-09-21T00:19:06.884Z,2.65
2022-09-21T00:21:35.737Z,2.30
2022-09-21T00:24:04.484Z,2.50
2022-09-21T00:26:34.208Z,2.78
2022-09-21T00:29:03.977Z,2.20
2022-09-21T00:31:33.456Z,1.77
2022-09-21T00:34:03.845Z,2.20
2022-09-21T00:36:32.231Z,2.50
2022-09-21T00:39:02.209Z,2.20
2022-09-21T00:41:32.346Z,2.53
2022-09-21T00:44:41.187Z,2.15
2022-09-21T00:47:14.256Z,2.40
2022-09-21T00:49:44.221Z,2.25
2022-09-21T00:52:14.930Z,2.42
2022-09-21T00:54:46.656Z,2.57
2022-09-21T00:57:16.822Z,2.05
2022-09-21T00:59:47.131Z,2.55
2022-09-21T01:02:15.905Z,2.50
2022-09-21T01:04:44.747Z,2.25
2022-09-21T01:07:18.650Z,2.80
2022-09-21T01:09:51.432Z,2.78
2022-09-21T01:12:36.010Z,2.92
2022-09-21T01:15:21.029Z,2.63
2022-09-21T01:17:58.537Z,2.63
2022-09-21T01:21:08.175Z,2.50
2022-09-21T01:23:50.162Z,2.75
2022-09-21T01:26:27.524Z,2.47
2022-09-21T01:29:19.812Z,3.22
2022-09-21T01:31:52.883Z,3.05
2022-09-21T01:34:29.541Z,2.88
2022-09-21T01:37:03.167Z,2.85
2022-09-21T01:39:35.064Z,2.70
2022-09-21T01:42:07.758Z,2.80
2022-09-21T01:44:41.315Z,4.18
2022-09-21T01:47:14.389Z,4.55
2022-09-21T01:49:47.430Z,4.38
2022-09-21T01:52:19.979Z,4.07
2022-09-21T01:54:53.366Z,4.10
2022-09-21T01:57:29.476Z,3.25
2022-09-21T02:00:01.574Z,2.90
2022-09-21T02:02:38.250Z,3.47
2022-09-21T02:05:07.628Z,3.30
2022-09-21T02:07:37.141Z,3.60
2022-09-21T02:10:07.060Z,3.78
2022-09-21T02:12:35.339Z,3.80
2022-09-21T02:15:05.638Z,3.70
2022-09-21T02:17:42.561Z,3.70
2022-09-21T02:20:20.749Z,3.65
2022-09-21T02:23:04.112Z,3.75
2022-09-21T02:25:42.858Z,3.38
2022-09-21T02:28:21.239Z,3.85
2022-09-21T02:30:57.429Z,4.35
2022-09-21T02:33:32.567Z,3.60
2022-09-21T02:36:09.579Z,4.18
2022-09-21T02:38:46.291Z,4.30
2022-09-21T02:41:20.059Z,3.78
2022-09-21T02:43:52.514Z,4.03
2022-09-21T02:46:28.035Z,5.00
2022-09-21T02:49:01.111Z,4.53
2022-09-21T02:51:32.868Z,4.25
2022-09-21T02:54:05.010Z,4.57
2022-09-21T02:56:33.721Z,3.88
2022-09-21T02:59:06.303Z,3.85
2022-09-21T03:01:36.405Z,4.00
2022-09-21T03:04:04.707Z,4.05
2022-09-21T03:06:33.727Z,4.13
2022-09-21T03:09:02.065Z,4.53
2022-09-21T03:11:30.505Z,4.63
2022-09-21T03:13:59.545Z,4.55
2022-09-21T03:16:29.189Z,4.72
2022-09-21T03:18:58.743Z,4.30
2022-09-21T03:21:26.967Z,3.92
2022-09-21T03:23:55.244Z,4.72
2022-09-21T03:26:23.545Z,4.30
2022-09-21T03:28:52.306Z,4.25
2022-09-21T03:31:20.439Z,4.80
2022-09-21T03:33:48.620Z,5.05
2022-09-21T03:36:18.299Z,4.63
2022-09-21T03:38:46.387Z,4.40
2022-09-21T03:41:15.390Z,4.53
2022-09-21T03:43:43.641Z,5.30
2022-09-21T03:46:11.923Z,4.70
2022-09-21T03:48:42.598Z,4.57
2022-09-21T03:51:10.690Z,4.72
2022-09-21T03:53:40.130Z,4.45
2022-09-21T03:56:08.331Z,5.45
2022-09-21T03:58:36.417Z,4.85
2022-09-21T04:01:05.276Z,5.28
2022-09-21T04:03:33.564Z,4.78
2022-09-21T04:06:03.536Z,5.03
2022-09-21T04:08:33.090Z,5.30
2022-09-21T04:11:02.684Z,6.60
2022-09-21T04:13:30.904Z,6.00
2022-09-21T04:15:59.391Z,6.15
2022-09-21T04:18:27.793Z,6.90
2022-09-21T04:20:55.963Z,6.25
2022-09-21T04:23:24.209Z,7.00
2022-09-21T04:25:52.617Z,7.53
2022-09-21T04:28:22.810Z,6.50
2022-09-21T04:30:54.198Z,7.15
2022-09-21T04:33:22.565Z,7.03
2022-09-21T04:35:56.649Z,7.55
2022-09-21T04:38:24.879Z,6.85
2022-09-21T04:40:57.410Z,8.13
2022-09-21T04:43:27.458Z,8.52
2022-09-21T04:45:55.721Z,7.90
2022-09-21T04:48:23.932Z,8.32
2022-09-21T04:50:52.330Z,8.27
2022-09-21T04:53:20.481Z,8.55
2022-09-21T04:55:49.037Z,7.53
2022-09-21T04:58:20.204Z,8.98
2022-09-21T05:00:52.847Z,8.85
2022-09-21T05:03:21.313Z,8.30
2022-09-21T05:05:50.051Z,7.90
2022-09-21T05:08:38.772Z,8.32
2022-09-21T05:11:06.166Z,8.57
2022-09-21T05:13:34.213Z,7.57
2022-09-21T05:16:03.811Z,7.60
2022-09-21T05:18:32.215Z,5.78
2022-09-21T05:21:01.753Z,6.50
2022-09-21T05:23:31.426Z,5.93
2022-09-21T05:26:00.740Z,6.85
2022-09-21T05:28:29.453Z,5.95
2022-09-21T05:31:17.124Z,4.85
2022-09-21T05:33:53.192Z,4.05
2022-09-21T05:36:40.488Z,3.83
2022-09-21T05:39:09.352Z,3.90
2022-09-21T05:41:38.862Z,3.83
2022-09-21T05:44:07.895Z,3.65
2022-09-21T05:46:40.841Z,3.60
2022-09-21T05:49:20.141Z,3.10
2022-09-21T05:51:58.320Z,2.90
2022-09-21T05:54:40.768Z,2.72
2022-09-21T05:57:17.783Z,2.85
2022-09-21T05:59:58.661Z,2.53
2022-09-21T06:02:45.614Z,2.30
2022-09-21T06:05:16.874Z,2.20
2022-09-21T06:07:44.912Z,2.55
2022-09-21T06:10:15.004Z,2.17
2022-09-21T06:12:43.688Z,2.33
2022-09-21T06:15:13.903Z,1.90
2022-09-21T06:17:42.082Z,2.10
2022-09-21T06:20:11.431Z,2.10
2022-09-21T06:22:43.295Z,2.20
2022-09-21T06:25:11.742Z,2.30
2022-09-21T06:27:40.034Z,2.47
2022-09-21T06:30:09.188Z,1.67
2022-09-21T06:32:37.260Z,2.10
2022-09-21T06:35:06.051Z,2.45
2022-09-21T06:37:34.236Z,1.92
2022-09-21T06:40:04.167Z,2.00
2022-09-21T06:42:32.436Z,2.30
2022-09-21T06:45:00.644Z,2.38
2022-09-21T06:47:28.824Z,2.42
2022-09-21T06:49:57.100Z,1.98
2022-09-21T06:52:25.341Z,2.00
2022-09-21T06:54:53.551Z,2.33
2022-09-21T06:57:24.136Z,2.38
2022-09-21T06:59:52.185Z,2.20
2022-09-21T07:02:20.337Z,2.25
2022-09-21T07:04:48.467Z,2.20
2022-09-21T07:07:16.674Z,2.35
2022-09-21T07:12:35.380Z,2.35
2022-09-21T07:15:03.514Z,1.95
2022-09-21T07:17:36.177Z,2.05
2022-09-21T07:20:06.034Z,2.00
2022-09-21T07:22:34.315Z,1.80
2022-09-21T07:25:02.600Z,1.88
2022-09-21T07:27:31.975Z,2.00
2022-09-21T07:30:01.470Z,1.98
2022-09-21T07:32:31.587Z,2.38
2022-09-21T07:34:59.801Z,1.92
2022-09-21T07:37:28.485Z,1.98
2022-09-21T07:39:56.649Z,2.20
2022-09-21T07:42:26.575Z,2.20
2022-09-21T07:45:03.926Z,1.75
2022-09-21T07:47:34.158Z,2.10
2022-09-21T07:50:02.276Z,1.77
2022-09-21T07:52:30.418Z,1.83
2022-09-21T07:54:58.507Z,1.65
2022-09-21T07:57:43.990Z,1.70
2022-09-21T08:00:13.487Z,4.25
2022-09-21T08:02:47.495Z,1.80
2022-09-21T08:05:16.346Z,1.67
2022-09-21T08:07:44.547Z,1.83
2022-09-21T08:10:13.157Z,1.60
2022-09-21T08:12:41.526Z,1.52
2022-09-21T08:15:30.545Z,1.63
2022-09-21T08:18:02.997Z,1.75
2022-09-21T08:23:00.173Z,1.25
2022-09-21T08:25:28.645Z,1.50
2022-09-21T08:28:00.760Z,2.15
2022-09-21T08:30:31.238Z,1.50
2022-09-21T08:33:00.949Z,1.65
2022-09-21T08:35:29.058Z,1.40
2022-09-21T08:37:57.311Z,1.80
2022-09-21T08:40:25.766Z,1.83
2022-09-21T08:43:00.372Z,1.80
2022-09-21T08:45:35.661Z,1.70
2022-09-21T08:48:11.391Z,1.25
2022-09-21T08:50:46.740Z,1.52
2022-09-21T08:53:18.865Z,1.75
2022-09-21T08:55:47.091Z,1.77
2022-09-21T08:58:24.144Z,1.50
2022-09-21T09:01:07.383Z,1.58
2022-09-21T09:04:04.359Z,1.20
2022-09-21T09:06:43.503Z,1.60
2022-09-21T09:09:25.467Z,1.60
2022-09-21T09:12:11.256Z,1.30
2022-09-21T09:15:06.889Z,1.98
2022-09-21T09:17:46.823Z,1.40
2022-09-21T09:20:20.213Z,1.50
2022-09-21T09:22:54.921Z,1.20
2022-09-21T09:25:25.093Z,1.60
2022-09-21T09:27:56.979Z,1.80
2022-09-21T09:30:27.503Z,1.80
2022-09-21T09:33:01.858Z,1.35
2022-09-21T09:35:35.436Z,1.27
2022-09-21T09:38:12.128Z,1.25
2022-09-21T09:40:54.201Z,1.35
2022-09-21T09:43:35.643Z,1.45
2022-09-21T09:46:13.739Z,1.42
2022-09-21T09:49:08.268Z,1.48
2022-09-21T09:51:40.028Z,1.42
2022-09-21T09:54:15.070Z,1.23
2022-09-21T09:56:43.314Z,1.40
2022-09-21T09:59:20.579Z,1.35
2022-09-21T10:02:00.777Z,1.40
2022-09-21T10:04:29.417Z,1.20
2022-09-21T10:06:59.092Z,1.45
2022-09-21T10:09:29.660Z,1.55
2022-09-21T10:12:01.249Z,1.60
2022-09-21T10:14:34.141Z,1.83
2022-09-21T10:17:07.113Z,2.25
2022-09-21T10:19:35.634Z,1.35
2022-09-21T10:22:06.881Z,1.58
2022-09-21T10:24:39.052Z,1.80
2022-09-21T10:27:12.855Z,1.50
2022-09-21T10:29:43.807Z,2.20
2022-09-21T10:32:26.626Z,1.17
2022-09-21T10:35:18.177Z,1.27
2022-09-21T10:37:53.871Z,1.83
2022-09-21T10:40:28.099Z,1.48
2022-09-21T10:42:58.720Z,1.55
2022-09-21T10:45:29.138Z,1.73
2022-09-21T10:47:59.931Z,2.95
2022-09-21T10:50:31.514Z,1.70
2022-09-21T10:53:12.091Z,1.30
2022-09-21T10:55:52.608Z,1.50
2022-09-21T10:58:27.024Z,1.42
2022-09-21T11:00:56.647Z,2.17
2022-09-21T11:03:52.603Z,1.30
2022-09-21T11:06:28.255Z,1.00
2022-09-21T11:09:02.373Z,1.33
2022-09-21T11:11:39.658Z,1.05
2022-09-21T11:14:19.275Z,1.30
2022-09-21T11:16:54.637Z,1.38
2022-09-21T11:19:32.164Z,1.13
2022-09-21T11:22:09.698Z,1.15
2022-09-21T11:24:48.217Z,1.38
2022-09-21T11:27:21.371Z,1.23
2022-09-21T11:29:59.565Z,1.40
2022-09-21T11:32:53.383Z,1.60
2022-09-21T11:35:35.175Z,1.80
2022-09-21T11:38:13.063Z,1.20
2022-09-21T11:41:00.432Z,1.30
2022-09-21T11:43:55.596Z,1.00
2022-09-21T11:46:31.320Z,1.30
2022-09-21T11:49:28.109Z,1.45
2022-09-21T11:52:11.769Z,1.50
2022-09-21T11:55:06.310Z,1.50
2022-09-21T11:57:44.763Z,1.40
2022-09-21T12:00:17.683Z,1.20
2022-09-21T12:03:33.753Z,1.38
2022-09-21T12:06:29.140Z,1.25
2022-09-21T12:09:27.589Z,1.30
2022-09-21T12:12:03.557Z,1.45
2022-09-21T12:14:39.207Z,1.60
2022-09-21T12:17:15.031Z,1.20
2022-09-21T12:19:51.187Z,2.67
2022-09-21T12:22:23.987Z,1.40
2022-09-21T12:24:55.969Z,1.33
2022-09-21T12:27:29.509Z,1.25
2022-09-21T12:30:05.046Z,1.20
2022-09-21T12:32:49.542Z,1.15
2022-09-21T12:35:22.209Z,1.52
2022-09-21T12:37:58.883Z,1.15
2022-09-21T12:40:37.605Z,1.08
2022-09-21T12:43:17.529Z,1.40
2022-09-21T12:45:53.513Z,1.45
2022-09-21T12:48:31.152Z,1.40
2022-09-21T12:51:06.437Z,1.17
2022-09-21T12:53:37.900Z,1.20
2022-09-21T12:59:01.564Z,1.45
2022-09-21T13:01:38.417Z,1.23
2022-09-21T13:04:23.447Z,1.10
2022-09-21T13:07:30.219Z,1.20
2022-09-21T13:09:59.292Z,1.40
2022-09-21T13:12:34.124Z,1.52
2022-09-21T13:15:13.494Z,1.55
2022-09-21T13:17:43.252Z,1.55
2022-09-21T13:20:19.550Z,1.42
2022-09-21T13:22:49.295Z,1.40
2022-09-21T13:25:24.044Z,1.60
2022-09-21T13:28:05.236Z,1.88
2022-09-21T13:30:37.570Z,1.30
2022-09-21T13:33:31.590Z,1.05
2022-09-21T13:36:19.757Z,2.13
2022-09-21T13:39:17.173Z,1.20
2022-09-21T13:42:02.380Z,1.13
2022-09-21T13:44:42.152Z,1.02
2022-09-21T13:47:12.095Z,1.35
2022-09-21T13:49:46.376Z,1.55
2022-09-21T13:52:28.670Z,2.22
2022-09-21T13:55:00.768Z,1.40
2022-09-21T13:57:37.062Z,1.30
2022-09-21T14:00:35.935Z,1.33
2022-09-21T14:03:08.158Z,1.35
2022-09-21T14:05:42.974Z,1.30
2022-09-21T14:08:23.332Z,2.08
2022-09-21T14:10:55.388Z,1.70
2022-09-21T14:13:32.674Z,1.10
2022-09-21T14:16:38.269Z,1.50
2022-09-21T14:19:45.087Z,1.20
2022-09-21T14:22:43.145Z,1.17
2022-09-21T14:25:28.169Z,1.10
2022-09-21T14:28:01.889Z,1.00
2022-09-21T14:30:35.609Z,1.60
2022-09-21T14:33:25.574Z,1.40
2022-09-21T14:35:55.779Z,1.85
2022-09-21T14:38:28.466Z,1.55
2022-09-21T14:41:01.198Z,1.10
2022-09-21T14:43:33.976Z,1.33
2022-09-21T14:46:36.286Z,1.35
2022-09-21T14:49:23.240Z,1.70
2022-09-21T14:52:04.507Z,1.02
2022-09-21T14:54:50.580Z,1.38
2022-09-21T14:57:50.900Z,1.17
2022-09-21T15:00:23.541Z,3.13
2022-09-21T15:03:05.800Z,2.28
2022-09-21T15:05:37.621Z,1.50
2022-09-21T15:08:41.249Z,1.35
2022-09-21T15:11:18.896Z,1.80
2022-09-21T15:14:11.376Z,1.58
2022-09-21T15:16:43.443Z,1.48
2022-09-21T15:19:23.969Z,1.23
2022-09-21T15:21:54.033Z,1.30
2022-09-21T15:24:26.845Z,1.80
2022-09-21T15:27:05.840Z,2.42
2022-09-21T15:29:35.197Z,1.45
2022-09-21T15:32:04.055Z,1.13
2022-09-21T15:34:32.377Z,2.22
2022-09-21T15:37:16.561Z,1.30
2022-09-21T15:39:45.120Z,1.48
2022-09-21T15:42:23.132Z,1.38
2022-09-21T15:45:06.051Z,1.50
2022-09-21T15:47:34.764Z,1.88
2022-09-21T15:50:03.321Z,1.80
2022-09-21T15:52:37.997Z,1.65
2022-09-21T15:55:13.198Z,1.40
2022-09-21T15:57:44.350Z,1.38
2022-09-21T16:00:22.263Z,1.75
2022-09-21T16:03:04.936Z,1.40
2022-09-21T16:05:47.256Z,1.67
2022-09-21T16:08:28.424Z,1.60
2022-09-21T16:11:14.232Z,1.65
2022-09-21T16:14:02.674Z,1.98
2022-09-21T16:16:30.904Z,1.20
2022-09-21T16:19:00.733Z,2.22
2022-09-21T16:21:32.934Z,2.00
2022-09-21T16:24:12.568Z,1.40
2022-09-21T16:26:42.735Z,1.70
2022-09-21T16:29:23.672Z,1.52
2022-09-21T16:31:52.063Z,1.63
2022-09-21T16:34:33.318Z,1.50
2022-09-21T16:37:04.309Z,1.10
2022-09-21T16:39:32.491Z,2.67
2022-09-21T16:42:05.635Z,1.60
2022-09-21T16:44:36.854Z,1.40
2022-09-21T16:47:05.454Z,1.75
2022-09-21T16:49:35.895Z,1.77
2022-09-21T16:52:04.684Z,1.77
2022-09-21T16:54:32.920Z,2.42
2022-09-21T16:57:02.867Z,3.10
2022-09-21T16:59:33.273Z,2.55
2022-09-21T17:02:05.167Z,2.60
2022-09-21T17:04:35.362Z,3.05
2022-09-21T17:07:05.147Z,2.72
2022-09-21T17:09:38.277Z,2.53
2022-09-21T17:12:08.668Z,2.40
2022-09-21T17:14:40.910Z,2.95
2022-09-21T17:17:18.925Z,3.08
2022-09-21T17:19:50.035Z,2.72
2022-09-21T17:22:18.709Z,2.80
2022-09-21T17:24:51.226Z,2.90
2022-09-21T17:27:22.785Z,3.50
2022-09-21T17:29:53.969Z,4.15
2022-09-21T17:32:25.010Z,2.92
2022-09-21T17:34:59.041Z,2.47
2022-09-21T17:37:27.423Z,2.40
2022-09-21T17:39:55.602Z,2.97
2022-09-21T17:42:25.912Z,2.78
2022-09-21T17:45:12.807Z,2.80
2022-09-21T17:47:43.210Z,3.03
2022-09-21T17:50:23.243Z,2.90
2022-09-21T17:53:09.558Z,3.20
2022-09-21T17:55:38.774Z,3.15
2022-09-21T17:58:34.518Z,3.00
2022-09-21T18:01:08.527Z,3.30
2022-09-21T18:03:41.210Z,2.75
2022-09-21T18:06:10.908Z,2.33
2022-09-21T18:08:40.876Z,2.17
2022-09-21T18:11:22.469Z,2.72
2022-09-21T18:16:28.934Z,2.47
2022-09-21T18:19:05.493Z,3.15
2022-09-21T18:21:40.850Z,2.45
2022-09-21T18:24:19.637Z,3.33
2022-09-21T18:26:49.135Z,2.80
2022-09-21T18:29:40.660Z,2.80
2022-09-21T18:32:34.398Z,2.80
2022-09-21T18:35:17.003Z,3.10
2022-09-21T18:38:00.180Z,4.25
2022-09-21T18:40:36.568Z,3.70
2022-09-21T18:43:22.795Z,2.95
2022-09-21T18:45:56.774Z,3.10
2022-09-21T18:48:37.256Z,2.50
2022-09-21T18:51:16.458Z,3.30
2022-09-21T18:53:48.704Z,3.03
2022-09-21T18:56:17.580Z,2.53
2022-09-21T18:58:46.689Z,2.63
2022-09-21T19:01:17.104Z,2.70
2022-09-21T19:03:46.204Z,2.53
2022-09-21T19:06:27.511Z,2.70
2022-09-21T19:09:02.980Z,2.30
2022-09-21T19:11:38.535Z,2.65
2022-09-21T19:14:14.503Z,2.72
2022-09-21T19:16:53.500Z,2.30
2022-09-21T19:19:32.708Z,2.22
2022-09-21T19:22:13.806Z,2.40
2022-09-21T19:24:50.516Z,2.35
2022-09-21T19:27:29.479Z,2.45
2022-09-21T19:30:06.741Z,2.50
2022-09-21T19:32:39.760Z,2.58
2022-09-21T19:35:17.869Z,2.22
2022-09-21T19:37:48.563Z,2.25
2022-09-21T19:40:18.802Z,2.10
2022-09-21T19:43:00.310Z,2.20
2022-09-21T19:45:34.899Z,2.70
2022-09-21T19:48:06.965Z,2.10
2022-09-21T19:50:44.375Z,2.00
2022-09-21T19:53:32.645Z,2.55
2022-09-21T19:56:19.799Z,2.20
2022-09-21T19:59:06.123Z,2.75
2022-09-21T20:01:40.263Z,3.10
2022-09-21T20:04:08.792Z,2.25
2022-09-21T20:06:43.634Z,2.53
2022-09-21T20:09:20.180Z,3.33
2022-09-21T20:11:56.546Z,2.75
2022-09-21T20:14:34.065Z,2.63
2022-09-21T20:17:08.720Z,2.70
2022-09-21T20:19:48.326Z,2.80
2022-09-21T20:22:18.637Z,2.75
2022-09-21T20:24:55.314Z,2.70
2022-09-21T20:27:34.782Z,2.00
2022-09-21T20:30:03.375Z,2.50
2022-09-21T20:32:31.811Z,2.80
2022-09-21T20:34:59.920Z,2.60
2022-09-21T20:37:30.489Z,2.75
2022-09-21T20:40:00.952Z,3.97
2022-09-21T20:42:29.051Z,3.20
2022-09-21T20:44:57.185Z,3.25
2022-09-21T20:47:25.413Z,4.03
2022-09-21T20:49:53.541Z,3.80
2022-09-21T20:52:21.743Z,3.30
2022-09-21T20:54:50.544Z,3.08
2022-09-21T20:57:20.423Z,2.67
2022-09-21T20:59:48.672Z,3.28
2022-09-21T21:02:17.866Z,3.38
2022-09-21T21:04:45.949Z,3.00
2022-09-21T21:07:14.050Z,2.72
2022-09-21T21:09:42.269Z,3.50
2022-09-21T21:12:10.674Z,2.63
2022-09-21T21:14:40.301Z,3.00
2022-09-21T21:17:08.550Z,2.88
2022-09-21T21:19:36.632Z,2.58
2022-09-21T21:22:05.373Z,2.50
2022-09-21T21:24:43.687Z,2.60
2022-09-21T21:27:16.415Z,2.40
2022-09-21T21:29:46.776Z,2.17
2022-09-21T21:32:15.573Z,3.97
2022-09-21T21:34:43.898Z,2.28
2022-09-21T21:37:12.878Z,2.22
2022-09-21T21:39:41.568Z,2.40
2022-09-21T21:42:10.048Z,2.03
2022-09-21T21:44:38.514Z,2.22
2022-09-21T21:47:35.110Z,2.65
2022-09-21T21:49:56.808Z,2.10
2022-09-21T21:52:25.233Z,2.45
2022-09-21T21:54:54.997Z,2.30
2022-09-21T21:57:23.221Z,2.42
2022-09-21T21:59:51.372Z,2.25
2022-09-21T22:02:20.951Z,3.75
2022-09-21T22:04:49.235Z,2.33
2022-09-21T22:07:17.251Z,2.33
2022-09-21T22:09:45.392Z,2.30
2022-09-21T22:12:13.565Z,2.42
2022-09-21T22:14:41.675Z,3.17
2022-09-21T22:17:10.157Z,2.30
2022-09-21T22:19:39.684Z,1.90
2022-09-21T22:22:07.943Z,2.40
2022-09-21T22:24:36.242Z,2.10
2022-09-21T22:27:04.451Z,2.50
2022-09-21T22:29:32.717Z,2.15
2022-09-21T22:32:01.117Z,2.40
2022-09-21T22:34:29.438Z,2.33
2022-09-21T22:36:59.576Z,2.25
2022-09-21T22:39:28.994Z,2.10
2022-09-21T22:41:57.389Z,2.10
2022-09-21T22:44:25.686Z,1.60
2022-09-21T22:46:53.829Z,2.10
2022-09-21T22:49:22.510Z,1.98
2022-09-21T22:51:50.976Z,4.10
2022-09-21T22:54:20.626Z,2.17
2022-09-21T22:56:48.999Z,1.73
2022-09-21T22:59:17.285Z,1.85
2022-09-21T23:01:45.969Z,1.63
2022-09-21T23:04:15.171Z,2.05
2022-09-21T23:06:46.059Z,1.80
2022-09-21T23:09:16.069Z,2.13
2022-09-21T23:11:48.083Z,2.22
2022-09-21T23:14:17.423Z,1.60
2022-09-21T23:16:45.897Z,2.17
2022-09-21T23:19:16.511Z,1.60
2022-09-21T23:21:46.753Z,1.53
2022-09-21T23:24:14.893Z,1.67
2022-09-21T23:26:43.450Z,1.95
2022-09-21T23:29:16.912Z,1.60
2022-09-21T23:31:46.419Z,1.80
2022-09-21T23:34:16.864Z,1.88
2022-09-21T23:36:46.107Z,1.85
2022-09-21T23:39:16.215Z,2.13
2022-09-21T23:41:45.146Z,1.77
2022-09-21T23:44:15.096Z,1.50
2022-09-21T23:46:43.942Z,1.50
2022-09-21T23:49:12.322Z,2.10
2022-09-21T23:51:41.453Z,2.08
2022-09-21T23:54:10.058Z,2.20
2022-09-21T23:56:38.560Z,1.42
2022-09-21T23:59:07.235Z,1.80
